sensor_id;sensor_type;location;lat;lon;timestamp;P1;durP1;ratioP1;P2;durP2;ratioP2
359;SDS011;168;48.872;9.226;2022-09-09T00:00:00;5.40;;;2.17;;
359;SDS011;168;48.872;9.226;2022-09-09T00:02:27;7.10;;;2.63;;
359;SDS011;168;48.872;9.226;2022-09-09T00:04:58;4.47;;;2.77;;
359;SDS011;168;48.872;9.226;2022-09-09T00:07:30;7.07;;;2.97;;
359;SDS011;168;48.872;9.226;2022-09-09T00:10:09;1.87;;;1.77;;
359;SDS011;168;48.872;9.226;2022-09-09T00:12:47;4.97;;;2.97;;
359;SDS011;168;48.872;9.226;2022-09-09T00:15:27;3.73;;;2.73;;
359;SDS011;168;48.872;9.226;2022-09-09T00:18:01;2.93;;;2.30;;
359;SDS011;168;48.872;9.226;2022-09-09T00:20:41;5.80;;;3.00;;
359;SDS011;168;48.872;9.226;2022-09-09T00:23:14;4.10;;;2.70;;
359;SDS011;168;48.872;9.226;2022-09-09T00:25:47;4.63;;;3.10;;
359;SDS011;168;48.872;9.226;2022-09-09T00:28:19;2.90;;;2.70;;
359;SDS011;168;48.872;9.226;2022-09-09T00:30:49;8.30;;;3.67;;
359;SDS011;168;48.872;9.226;2022-09-09T00:33:19;4.93;;;2.77;;
359;SDS011;168;48.872;9.226;2022-09-09T00:35:49;3.60;;;3.00;;
359;SDS011;168;48.872;9.226;2022-09-09T00:38:20;5.23;;;3.20;;
359;SDS011;168;48.872;9.226;2022-09-09T00:40:52;3.17;;;2.87;;
359;SDS011;168;48.872;9.226;2022-09-09T00:43:28;5.13;;;2.93;;
359;SDS011;168;48.872;9.226;2022-09-09T00:46:14;5.23;;;3.30;;
359;SDS011;168;48.872;9.226;2022-09-09T00:48:52;5.47;;;3.10;;
359;SDS011;168;48.872;9.226;2022-09-09T00:51:29;3.70;;;2.80;;
359;SDS011;168;48.872;9.226;2022-09-09T00:54:12;3.83;;;2.53;;
359;SDS011;168;48.872;9.226;2022-09-09T00:56:52;4.17;;;3.07;;
359;SDS011;168;48.872;9.226;2022-09-09T00:59:32;3.63;;;2.50;;
359;SDS011;168;48.872;9.226;2022-09-09T01:02:07;4.90;;;2.90;;
359;SDS011;168;48.872;9.226;2022-09-09T01:04:42;3.93;;;2.53;;
359;SDS011;168;48.872;9.226;2022-09-09T01:07:12;3.50;;;2.50;;
359;SDS011;168;48.872;9.226;2022-09-09T01:09:49;3.80;;;2.03;;
359;SDS011;168;48.872;9.226;2022-09-09T01:12:25;2.97;;;2.77;;
359;SDS011;168;48.872;9.226;2022-09-09T01:14:58;4.00;;;2.80;;
359;SDS011;168;48.872;9.226;2022-09-09T01:17:35;4.37;;;2.60;;
359;SDS011;168;48.872;9.226;2022-09-09T01:20:13;3.67;;;2.63;;
359;SDS011;168;48.872;9.226;2022-09-09T01:22:47;2.67;;;2.43;;
359;SDS011;168;48.872;9.226;2022-09-09T01:25:29;4.03;;;2.53;;
359;SDS011;168;48.872;9.226;2022-09-09T01:28:30;4.10;;;2.30;;
359;SDS011;168;48.872;9.226;2022-09-09T01:31:00;4.37;;;2.60;;
359;SDS011;168;48.872;9.226;2022-09-09T01:33:30;3.40;;;2.80;;
359;SDS011;168;48.872;9.226;2022-09-09T01:35:58;3.20;;;2.50;;
359;SDS011;168;48.872;9.226;2022-09-09T01:38:28;3.13;;;2.70;;
359;SDS011;168;48.872;9.226;2022-09-09T01:40:59;5.83;;;2.50;;
359;SDS011;168;48.872;9.226;2022-09-09T01:43:27;4.60;;;2.53;;
359;SDS011;168;48.872;9.226;2022-09-09T01:45:56;5.93;;;2.87;;
359;SDS011;168;48.872;9.226;2022-09-09T01:48:27;3.93;;;2.60;;
359;SDS011;168;48.872;9.226;2022-09-09T01:50:54;4.70;;;2.50;;
359;SDS011;168;48.872;9.226;2022-09-09T01:53:22;4.40;;;2.50;;
359;SDS011;168;48.872;9.226;2022-09-09T01:55:56;4.70;;;2.53;;
359;SDS011;168;48.872;9.226;2022-09-09T01:58:32;5.23;;;2.67;;
359;SDS011;168;48.872;9.226;2022-09-09T02:01:08;3.17;;;2.40;;
359;SDS011;168;48.872;9.226;2022-09-09T02:03:43;4.97;;;2.57;;
359;SDS011;168;48.872;9.226;2022-09-09T02:06:17;4.03;;;2.83;;
359;SDS011;168;48.872;9.226;2022-09-09T02:08:53;2.93;;;2.23;;
359;SDS011;168;48.872;9.226;2022-09-09T02:11:25;6.20;;;2.90;;
359;SDS011;168;48.872;9.226;2022-09-09T02:13:55;2.83;;;2.13;;
359;SDS011;168;48.872;9.226;2022-09-09T02:16:27;3.20;;;2.63;;
359;SDS011;168;48.872;9.226;2022-09-09T02:19:00;5.13;;;2.83;;
359;SDS011;168;48.872;9.226;2022-09-09T02:21:32;2.50;;;2.30;;
359;SDS011;168;48.872;9.226;2022-09-09T02:24:03;4.80;;;2.60;;
359;SDS011;168;48.872;9.226;2022-09-09T02:26:37;3.20;;;2.67;;
359;SDS011;168;48.872;9.226;2022-09-09T02:29:08;3.10;;;2.30;;
359;SDS011;168;48.872;9.226;2022-09-09T02:31:41;6.47;;;2.87;;
359;SDS011;168;48.872;9.226;2022-09-09T02:34:11;3.93;;;2.60;;
359;SDS011;168;48.872;9.226;2022-09-09T02:36:41;5.73;;;2.60;;
359;SDS011;168;48.872;9.226;2022-09-09T02:39:11;2.50;;;2.30;;
359;SDS011;168;48.872;9.226;2022-09-09T02:41:40;4.47;;;2.60;;
359;SDS011;168;48.872;9.226;2022-09-09T02:44:09;2.80;;;2.53;;
359;SDS011;168;48.872;9.226;2022-09-09T02:46:41;3.67;;;2.87;;
359;SDS011;168;48.872;9.226;2022-09-09T02:49:23;3.17;;;2.40;;
359;SDS011;168;48.872;9.226;2022-09-09T02:52:00;3.37;;;2.13;;
359;SDS011;168;48.872;9.226;2022-09-09T02:54:31;6.50;;;2.23;;
359;SDS011;168;48.872;9.226;2022-09-09T02:57:03;3.27;;;2.47;;
359;SDS011;168;48.872;9.226;2022-09-09T02:59:36;3.47;;;2.70;;
359;SDS011;168;48.872;9.226;2022-09-09T03:02:04;4.87;;;2.27;;
359;SDS011;168;48.872;9.226;2022-09-09T03:04:32;3.53;;;2.30;;
359;SDS011;168;48.872;9.226;2022-09-09T03:07:00;3.30;;;2.30;;
359;SDS011;168;48.872;9.226;2022-09-09T03:09:29;4.10;;;2.67;;
359;SDS011;168;48.872;9.226;2022-09-09T03:11:58;4.77;;;2.50;;
359;SDS011;168;48.872;9.226;2022-09-09T03:14:27;5.00;;;2.50;;
359;SDS011;168;48.872;9.226;2022-09-09T03:16:54;5.10;;;2.53;;
359;SDS011;168;48.872;9.226;2022-09-09T03:19:23;4.03;;;2.60;;
359;SDS011;168;48.872;9.226;2022-09-09T03:21:51;4.40;;;3.17;;
359;SDS011;168;48.872;9.226;2022-09-09T03:24:18;4.30;;;2.67;;
359;SDS011;168;48.872;9.226;2022-09-09T03:26:46;3.80;;;2.87;;
359;SDS011;168;48.872;9.226;2022-09-09T03:29:14;2.57;;;2.37;;
359;SDS011;168;48.872;9.226;2022-09-09T03:31:43;3.47;;;2.73;;
359;SDS011;168;48.872;9.226;2022-09-09T03:34:11;4.30;;;2.40;;
359;SDS011;168;48.872;9.226;2022-09-09T03:36:39;5.13;;;2.07;;
359;SDS011;168;48.872;9.226;2022-09-09T03:39:07;3.83;;;2.53;;
359;SDS011;168;48.872;9.226;2022-09-09T03:41:34;3.37;;;2.10;;
359;SDS011;168;48.872;9.226;2022-09-09T03:44:02;8.50;;;2.83;;
359;SDS011;168;48.872;9.226;2022-09-09T03:46:30;3.70;;;2.70;;
359;SDS011;168;48.872;9.226;2022-09-09T03:48:58;2.63;;;2.40;;
359;SDS011;168;48.872;9.226;2022-09-09T03:51:27;4.33;;;2.13;;
359;SDS011;168;48.872;9.226;2022-09-09T03:53:54;4.47;;;2.70;;
359;SDS011;168;48.872;9.226;2022-09-09T03:56:22;2.40;;;2.20;;
359;SDS011;168;48.872;9.226;2022-09-09T03:58:49;3.93;;;2.83;;
359;SDS011;168;48.872;9.226;2022-09-09T04:01:17;3.10;;;2.50;;
359;SDS011;168;48.872;9.226;2022-09-09T04:03:44;2.60;;;2.10;;
359;SDS011;168;48.872;9.226;2022-09-09T04:06:13;5.50;;;2.10;;
359;SDS011;168;48.872;9.226;2022-09-09T04:08:42;4.03;;;2.03;;
359;SDS011;168;48.872;9.226;2022-09-09T04:11:10;3.00;;;2.17;;
359;SDS011;168;48.872;9.226;2022-09-09T04:13:38;2.50;;;2.00;;
359;SDS011;168;48.872;9.226;2022-09-09T04:16:06;3.70;;;2.30;;
359;SDS011;168;48.872;9.226;2022-09-09T04:18:35;3.57;;;2.17;;
359;SDS011;168;48.872;9.226;2022-09-09T04:21:03;2.43;;;1.90;;
359;SDS011;168;48.872;9.226;2022-09-09T04:23:33;1.90;;;1.80;;
359;SDS011;168;48.872;9.226;2022-09-09T04:26:03;2.30;;;2.10;;
359;SDS011;168;48.872;9.226;2022-09-09T04:28:31;3.47;;;2.00;;
359;SDS011;168;48.872;9.226;2022-09-09T04:31:03;2.90;;;1.93;;
359;SDS011;168;48.872;9.226;2022-09-09T04:33:33;2.80;;;2.40;;
359;SDS011;168;48.872;9.226;2022-09-09T04:36:02;2.70;;;1.90;;
359;SDS011;168;48.872;9.226;2022-09-09T04:38:30;1.90;;;1.80;;
359;SDS011;168;48.872;9.226;2022-09-09T04:40:58;2.77;;;1.87;;
359;SDS011;168;48.872;9.226;2022-09-09T04:43:27;2.30;;;1.63;;
359;SDS011;168;48.872;9.226;2022-09-09T04:45:56;2.97;;;1.80;;
359;SDS011;168;48.872;9.226;2022-09-09T04:48:28;3.60;;;2.00;;
359;SDS011;168;48.872;9.226;2022-09-09T04:50:57;1.97;;;1.67;;
359;SDS011;168;48.872;9.226;2022-09-09T04:53:26;2.30;;;1.80;;
359;SDS011;168;48.872;9.226;2022-09-09T04:56:02;6.03;;;2.37;;
359;SDS011;168;48.872;9.226;2022-09-09T04:58:30;2.37;;;2.17;;
359;SDS011;168;48.872;9.226;2022-09-09T05:01:02;2.03;;;1.77;;
359;SDS011;168;48.872;9.226;2022-09-09T05:03:31;4.70;;;2.53;;
359;SDS011;168;48.872;9.226;2022-09-09T05:06:02;2.90;;;2.23;;
359;SDS011;168;48.872;9.226;2022-09-09T05:08:31;2.50;;;2.30;;
359;SDS011;168;48.872;9.226;2022-09-09T05:10:59;2.60;;;2.40;;
359;SDS011;168;48.872;9.226;2022-09-09T05:13:27;5.70;;;2.00;;
359;SDS011;168;48.872;9.226;2022-09-09T05:15:57;3.53;;;2.30;;
359;SDS011;168;48.872;9.226;2022-09-09T05:18:24;2.50;;;1.90;;
359;SDS011;168;48.872;9.226;2022-09-09T05:20:52;2.60;;;2.00;;
359;SDS011;168;48.872;9.226;2022-09-09T05:23:19;3.57;;;2.00;;
359;SDS011;168;48.872;9.226;2022-09-09T05:25:54;2.43;;;2.23;;
359;SDS011;168;48.872;9.226;2022-09-09T05:28:23;4.17;;;2.70;;
359;SDS011;168;48.872;9.226;2022-09-09T05:31:02;3.80;;;2.00;;
359;SDS011;168;48.872;9.226;2022-09-09T05:33:33;2.40;;;2.20;;
359;SDS011;168;48.872;9.226;2022-09-09T05:36:02;2.80;;;1.97;;
359;SDS011;168;48.872;9.226;2022-09-09T05:38:32;3.97;;;2.40;;
359;SDS011;168;48.872;9.226;2022-09-09T05:40:59;4.50;;;1.80;;
359;SDS011;168;48.872;9.226;2022-09-09T05:43:28;3.27;;;1.70;;
359;SDS011;168;48.872;9.226;2022-09-09T05:46:00;3.07;;;1.83;;
359;SDS011;168;48.872;9.226;2022-09-09T05:48:31;4.10;;;2.43;;
359;SDS011;168;48.872;9.226;2022-09-09T05:51:03;2.93;;;2.10;;
359;SDS011;168;48.872;9.226;2022-09-09T05:53:32;3.13;;;2.60;;
359;SDS011;168;48.872;9.226;2022-09-09T05:56:00;2.57;;;2.37;;
359;SDS011;168;48.872;9.226;2022-09-09T05:58:30;5.00;;;2.67;;
359;SDS011;168;48.872;9.226;2022-09-09T06:01:05;4.60;;;2.37;;
359;SDS011;168;48.872;9.226;2022-09-09T06:03:37;4.30;;;2.27;;
359;SDS011;168;48.872;9.226;2022-09-09T06:06:06;3.57;;;1.97;;
359;SDS011;168;48.872;9.226;2022-09-09T06:08:35;2.58;;;1.90;;
359;SDS011;168;48.872;9.226;2022-09-09T06:11:04;3.10;;;2.10;;
359;SDS011;168;48.872;9.226;2022-09-09T06:13:33;2.73;;;2.17;;
359;SDS011;168;48.872;9.226;2022-09-09T06:16:05;3.47;;;1.93;;
359;SDS011;168;48.872;9.226;2022-09-09T06:18:35;2.90;;;2.10;;
359;SDS011;168;48.872;9.226;2022-09-09T06:21:03;4.20;;;1.80;;
359;SDS011;168;48.872;9.226;2022-09-09T06:23:32;3.50;;;1.80;;
359;SDS011;168;48.872;9.226;2022-09-09T06:26:04;2.77;;;2.20;;
359;SDS011;168;48.872;9.226;2022-09-09T06:28:33;6.20;;;3.20;;
359;SDS011;168;48.872;9.226;2022-09-09T06:31:02;5.63;;;3.17;;
359;SDS011;168;48.872;9.226;2022-09-09T06:33:32;4.60;;;2.70;;
359;SDS011;168;48.872;9.226;2022-09-09T06:36:02;4.33;;;2.10;;
359;SDS011;168;48.872;9.226;2022-09-09T06:38:30;5.00;;;3.20;;
359;SDS011;168;48.872;9.226;2022-09-09T06:40:58;2.20;;;2.03;;
359;SDS011;168;48.872;9.226;2022-09-09T06:43:27;2.80;;;2.23;;
359;SDS011;168;48.872;9.226;2022-09-09T06:45:55;3.20;;;2.30;;
359;SDS011;168;48.872;9.226;2022-09-09T06:48:25;3.40;;;2.00;;
359;SDS011;168;48.872;9.226;2022-09-09T06:50:59;2.20;;;2.00;;
359;SDS011;168;48.872;9.226;2022-09-09T06:53:28;4.10;;;1.97;;
359;SDS011;168;48.872;9.226;2022-09-09T06:55:55;2.13;;;1.83;;
359;SDS011;168;48.872;9.226;2022-09-09T06:58:23;3.67;;;2.20;;
359;SDS011;168;48.872;9.226;2022-09-09T07:00:50;2.47;;;2.17;;
359;SDS011;168;48.872;9.226;2022-09-09T07:03:18;2.53;;;2.10;;
359;SDS011;168;48.872;9.226;2022-09-09T07:05:54;4.73;;;2.17;;
359;SDS011;168;48.872;9.226;2022-09-09T07:08:22;4.03;;;1.93;;
359;SDS011;168;48.872;9.226;2022-09-09T07:10:50;4.03;;;2.60;;
359;SDS011;168;48.872;9.226;2022-09-09T07:13:19;2.40;;;2.20;;
359;SDS011;168;48.872;9.226;2022-09-09T07:15:50;4.43;;;2.17;;
359;SDS011;168;48.872;9.226;2022-09-09T07:18:18;2.40;;;2.13;;
359;SDS011;168;48.872;9.226;2022-09-09T07:20:52;3.87;;;2.30;;
359;SDS011;168;48.872;9.226;2022-09-09T07:23:22;2.00;;;1.80;;
359;SDS011;168;48.872;9.226;2022-09-09T07:25:50;3.53;;;2.53;;
359;SDS011;168;48.872;9.226;2022-09-09T07:28:18;2.63;;;2.43;;
359;SDS011;168;48.872;9.226;2022-09-09T07:30:52;2.40;;;2.20;;
359;SDS011;168;48.872;9.226;2022-09-09T07:33:20;7.30;;;2.17;;
359;SDS011;168;48.872;9.226;2022-09-09T07:35:47;2.57;;;2.27;;
359;SDS011;168;48.872;9.226;2022-09-09T07:38:16;2.60;;;2.40;;
359;SDS011;168;48.872;9.226;2022-09-09T07:40:45;2.20;;;2.00;;
359;SDS011;168;48.872;9.226;2022-09-09T07:43:12;3.10;;;1.90;;
359;SDS011;168;48.872;9.226;2022-09-09T07:45:40;2.90;;;2.50;;
359;SDS011;168;48.872;9.226;2022-09-09T07:48:10;6.57;;;4.13;;
359;SDS011;168;48.872;9.226;2022-09-09T07:50:37;2.50;;;2.30;;
359;SDS011;168;48.872;9.226;2022-09-09T07:53:04;3.20;;;2.17;;
359;SDS011;168;48.872;9.226;2022-09-09T07:55:33;1.97;;;1.87;;
359;SDS011;168;48.872;9.226;2022-09-09T07:58:01;2.73;;;2.20;;
359;SDS011;168;48.872;9.226;2022-09-09T08:00:29;2.23;;;2.00;;
359;SDS011;168;48.872;9.226;2022-09-09T08:02:56;2.53;;;2.00;;
359;SDS011;168;48.872;9.226;2022-09-09T08:05:26;4.00;;;2.00;;
359;SDS011;168;48.872;9.226;2022-09-09T08:07:53;2.70;;;1.90;;
359;SDS011;168;48.872;9.226;2022-09-09T08:10:21;4.20;;;2.00;;
359;SDS011;168;48.872;9.226;2022-09-09T08:12:50;1.93;;;1.30;;
359;SDS011;168;48.872;9.226;2022-09-09T08:15:19;3.67;;;2.10;;
359;SDS011;168;48.872;9.226;2022-09-09T08:17:48;3.70;;;1.97;;
359;SDS011;168;48.872;9.226;2022-09-09T08:20:16;3.50;;;1.70;;
359;SDS011;168;48.872;9.226;2022-09-09T08:22:43;2.90;;;2.00;;
359;SDS011;168;48.872;9.226;2022-09-09T08:25:13;2.67;;;1.80;;
359;SDS011;168;48.872;9.226;2022-09-09T08:27:41;2.50;;;1.80;;
359;SDS011;168;48.872;9.226;2022-09-09T08:30:11;4.07;;;1.60;;
359;SDS011;168;48.872;9.226;2022-09-09T08:32:39;1.90;;;1.70;;
359;SDS011;168;48.872;9.226;2022-09-09T08:35:07;3.47;;;1.90;;
359;SDS011;168;48.872;9.226;2022-09-09T08:37:35;2.70;;;1.70;;
359;SDS011;168;48.872;9.226;2022-09-09T08:40:03;3.07;;;1.50;;
359;SDS011;168;48.872;9.226;2022-09-09T08:42:35;1.93;;;1.40;;
359;SDS011;168;48.872;9.226;2022-09-09T08:45:32;2.40;;;1.30;;
359;SDS011;168;48.872;9.226;2022-09-09T08:48:09;2.40;;;1.30;;
359;SDS011;168;48.872;9.226;2022-09-09T08:50:46;4.10;;;1.77;;
359;SDS011;168;48.872;9.226;2022-09-09T08:53:19;1.77;;;1.57;;
359;SDS011;168;48.872;9.226;2022-09-09T08:55:52;2.10;;;1.27;;
359;SDS011;168;48.872;9.226;2022-09-09T08:58:25;4.28;;;1.70;;
359;SDS011;168;48.872;9.226;2022-09-09T09:01:02;2.40;;;1.83;;
359;SDS011;168;48.872;9.226;2022-09-09T09:03:51;4.53;;;2.03;;
359;SDS011;168;48.872;9.226;2022-09-09T09:07:14;2.70;;;1.40;;
359;SDS011;168;48.872;9.226;2022-09-09T09:10:00;1.47;;;1.10;;
359;SDS011;168;48.872;9.226;2022-09-09T09:12:38;2.40;;;1.27;;
359;SDS011;168;48.872;9.226;2022-09-09T09:15:17;3.10;;;1.77;;
359;SDS011;168;48.872;9.226;2022-09-09T09:17:49;1.73;;;1.27;;
359;SDS011;168;48.872;9.226;2022-09-09T09:20:21;2.10;;;1.13;;
359;SDS011;168;48.872;9.226;2022-09-09T09:22:57;2.20;;;1.30;;
359;SDS011;168;48.872;9.226;2022-09-09T09:25:31;5.83;;;1.33;;
359;SDS011;168;48.872;9.226;2022-09-09T09:28:17;1.80;;;1.23;;
359;SDS011;168;48.872;9.226;2022-09-09T09:30:51;3.63;;;1.30;;
359;SDS011;168;48.872;9.226;2022-09-09T09:33:25;1.93;;;1.23;;
359;SDS011;168;48.872;9.226;2022-09-09T09:36:00;3.10;;;1.10;;
359;SDS011;168;48.872;9.226;2022-09-09T09:38:29;1.73;;;1.20;;
359;SDS011;168;48.872;9.226;2022-09-09T09:41:08;3.17;;;1.50;;
359;SDS011;168;48.872;9.226;2022-09-09T09:43:37;1.40;;;1.10;;
359;SDS011;168;48.872;9.226;2022-09-09T09:46:17;1.60;;;1.27;;
359;SDS011;168;48.872;9.226;2022-09-09T09:49:00;2.53;;;1.30;;
359;SDS011;168;48.872;9.226;2022-09-09T09:51:30;2.00;;;1.20;;
359;SDS011;168;48.872;9.226;2022-09-09T09:54:16;2.43;;;1.50;;
359;SDS011;168;48.872;9.226;2022-09-09T09:57:12;1.07;;;0.70;;
359;SDS011;168;48.872;9.226;2022-09-09T09:59:44;2.73;;;1.30;;
359;SDS011;168;48.872;9.226;2022-09-09T10:02:17;1.87;;;1.50;;
359;SDS011;168;48.872;9.226;2022-09-09T10:04:47;1.93;;;1.30;;
359;SDS011;168;48.872;9.226;2022-09-09T10:07:17;2.43;;;1.30;;
359;SDS011;168;48.872;9.226;2022-09-09T10:09:53;2.17;;;0.90;;
359;SDS011;168;48.872;9.226;2022-09-09T10:16:07;2.00;;;1.00;;
359;SDS011;168;48.872;9.226;2022-09-09T10:18:46;1.60;;;0.93;;
359;SDS011;168;48.872;9.226;2022-09-09T10:21:28;1.77;;;0.90;;
359;SDS011;168;48.872;9.226;2022-09-09T10:24:09;2.73;;;0.87;;
359;SDS011;168;48.872;9.226;2022-09-09T10:26:51;3.00;;;1.03;;
359;SDS011;168;48.872;9.226;2022-09-09T10:29:29;2.00;;;0.87;;
359;SDS011;168;48.872;9.226;2022-09-09T10:32:14;1.20;;;0.90;;
359;SDS011;168;48.872;9.226;2022-09-09T10:34:57;3.03;;;0.97;;
359;SDS011;168;48.872;9.226;2022-09-09T10:37:34;2.87;;;1.40;;
359;SDS011;168;48.872;9.226;2022-09-09T10:40:19;1.90;;;1.53;;
359;SDS011;168;48.872;9.226;2022-09-09T10:42:58;1.70;;;1.13;;
359;SDS011;168;48.872;9.226;2022-09-09T10:48:19;1.20;;;0.80;;
359;SDS011;168;48.872;9.226;2022-09-09T10:53:59;2.10;;;1.40;;
359;SDS011;168;48.872;9.226;2022-09-09T10:56:39;2.13;;;1.10;;
359;SDS011;168;48.872;9.226;2022-09-09T10:59:19;3.73;;;1.83;;
359;SDS011;168;48.872;9.226;2022-09-09T11:01:53;2.23;;;1.07;;
359;SDS011;168;48.872;9.226;2022-09-09T11:04:28;1.07;;;1.00;;
359;SDS011;168;48.872;9.226;2022-09-09T11:07:02;2.33;;;1.10;;
359;SDS011;168;48.872;9.226;2022-09-09T11:09:43;2.67;;;1.13;;
359;SDS011;168;48.872;9.226;2022-09-09T11:12:21;4.10;;;1.53;;
359;SDS011;168;48.872;9.226;2022-09-09T11:14:54;2.20;;;1.00;;
359;SDS011;168;48.872;9.226;2022-09-09T11:17:26;3.27;;;1.40;;
359;SDS011;168;48.872;9.226;2022-09-09T11:20:00;2.07;;;1.20;;
359;SDS011;168;48.872;9.226;2022-09-09T11:22:29;3.10;;;1.00;;
359;SDS011;168;48.872;9.226;2022-09-09T11:25:01;3.20;;;1.60;;
359;SDS011;168;48.872;9.226;2022-09-09T11:27:36;2.23;;;1.40;;
359;SDS011;168;48.872;9.226;2022-09-09T11:30:17;4.20;;;1.60;;
359;SDS011;168;48.872;9.226;2022-09-09T11:32:54;5.80;;;1.90;;
359;SDS011;168;48.872;9.226;2022-09-09T11:35:50;6.30;;;2.20;;
359;SDS011;168;48.872;9.226;2022-09-09T11:38:28;5.77;;;2.13;;
359;SDS011;168;48.872;9.226;2022-09-09T11:41:02;1.47;;;1.33;;
359;SDS011;168;48.872;9.226;2022-09-09T11:43:33;4.63;;;1.60;;
359;SDS011;168;48.872;9.226;2022-09-09T11:46:07;1.60;;;1.50;;
359;SDS011;168;48.872;9.226;2022-09-09T11:48:36;2.40;;;1.47;;
359;SDS011;168;48.872;9.226;2022-09-09T11:51:09;1.27;;;1.07;;
359;SDS011;168;48.872;9.226;2022-09-09T11:53:47;2.03;;;1.60;;
359;SDS011;168;48.872;9.226;2022-09-09T11:56:27;1.43;;;1.33;;
359;SDS011;168;48.872;9.226;2022-09-09T11:58:59;1.70;;;1.50;;
359;SDS011;168;48.872;9.226;2022-09-09T12:01:30;1.20;;;1.10;;
359;SDS011;168;48.872;9.226;2022-09-09T12:04:20;1.80;;;1.10;;
359;SDS011;168;48.872;9.226;2022-09-09T12:06:59;1.63;;;1.03;;
359;SDS011;168;48.872;9.226;2022-09-09T12:09:31;1.33;;;0.90;;
359;SDS011;168;48.872;9.226;2022-09-09T12:12:17;1.37;;;0.87;;
359;SDS011;168;48.872;9.226;2022-09-09T12:15:00;2.40;;;0.80;;
359;SDS011;168;48.872;9.226;2022-09-09T12:17:46;1.87;;;0.90;;
359;SDS011;168;48.872;9.226;2022-09-09T12:20:17;3.00;;;1.00;;
359;SDS011;168;48.872;9.226;2022-09-09T12:22:51;9.00;;;1.27;;
359;SDS011;168;48.872;9.226;2022-09-09T12:25:32;1.00;;;0.90;;
359;SDS011;168;48.872;9.226;2022-09-09T12:28:17;1.23;;;0.87;;
359;SDS011;168;48.872;9.226;2022-09-09T12:30:49;0.90;;;0.50;;
359;SDS011;168;48.872;9.226;2022-09-09T12:33:50;0.90;;;0.70;;
359;SDS011;168;48.872;9.226;2022-09-09T12:36:50;1.83;;;0.60;;
359;SDS011;168;48.872;9.226;2022-09-09T12:39:29;2.13;;;0.60;;
359;SDS011;168;48.872;9.226;2022-09-09T12:42:00;1.13;;;0.70;;
359;SDS011;168;48.872;9.226;2022-09-09T12:44:31;2.90;;;1.10;;
359;SDS011;168;48.872;9.226;2022-09-09T12:47:00;1.70;;;0.80;;
359;SDS011;168;48.872;9.226;2022-09-09T12:49:30;3.33;;;0.70;;
359;SDS011;168;48.872;9.226;2022-09-09T12:52:03;2.37;;;0.67;;
359;SDS011;168;48.872;9.226;2022-09-09T12:54:43;2.40;;;0.70;;
359;SDS011;168;48.872;9.226;2022-09-09T12:57:12;1.07;;;0.57;;
359;SDS011;168;48.872;9.226;2022-09-09T12:59:45;1.17;;;0.70;;
359;SDS011;168;48.872;9.226;2022-09-09T13:02:19;1.27;;;0.63;;
359;SDS011;168;48.872;9.226;2022-09-09T13:04:50;1.27;;;0.73;;
359;SDS011;168;48.872;9.226;2022-09-09T13:07:22;1.53;;;0.70;;
359;SDS011;168;48.872;9.226;2022-09-09T13:09:51;0.63;;;0.60;;
359;SDS011;168;48.872;9.226;2022-09-09T13:12:29;1.70;;;0.73;;
359;SDS011;168;48.872;9.226;2022-09-09T13:15:16;2.20;;;0.70;;
359;SDS011;168;48.872;9.226;2022-09-09T13:17:53;1.83;;;0.70;;
359;SDS011;168;48.872;9.226;2022-09-09T13:20:22;1.90;;;0.80;;
359;SDS011;168;48.872;9.226;2022-09-09T13:22:53;0.73;;;0.50;;
359;SDS011;168;48.872;9.226;2022-09-09T13:25:25;1.23;;;0.90;;
359;SDS011;168;48.872;9.226;2022-09-09T13:27:55;1.80;;;0.70;;
359;SDS011;168;48.872;9.226;2022-09-09T13:30:28;1.63;;;0.90;;
359;SDS011;168;48.872;9.226;2022-09-09T13:33:01;2.63;;;0.70;;
359;SDS011;168;48.872;9.226;2022-09-09T13:35:31;2.83;;;0.80;;
359;SDS011;168;48.872;9.226;2022-09-09T13:37:59;3.50;;;0.97;;
359;SDS011;168;48.872;9.226;2022-09-09T13:40:35;0.60;;;0.60;;
359;SDS011;168;48.872;9.226;2022-09-09T13:43:04;1.23;;;1.13;;
359;SDS011;168;48.872;9.226;2022-09-09T13:45:37;1.80;;;0.73;;
359;SDS011;168;48.872;9.226;2022-09-09T13:48:08;1.43;;;0.67;;
359;SDS011;168;48.872;9.226;2022-09-09T13:50:39;2.30;;;1.17;;
359;SDS011;168;48.872;9.226;2022-09-09T13:53:07;1.30;;;0.70;;
359;SDS011;168;48.872;9.226;2022-09-09T13:55:38;1.67;;;0.93;;
359;SDS011;168;48.872;9.226;2022-09-09T13:58:06;1.03;;;0.80;;
359;SDS011;168;48.872;9.226;2022-09-09T14:00:43;2.33;;;1.10;;
359;SDS011;168;48.872;9.226;2022-09-09T14:03:12;0.90;;;0.77;;
359;SDS011;168;48.872;9.226;2022-09-09T14:05:40;1.50;;;0.77;;
359;SDS011;168;48.872;9.226;2022-09-09T14:08:10;0.70;;;0.70;;
359;SDS011;168;48.872;9.226;2022-09-09T14:10:43;1.13;;;0.60;;
359;SDS011;168;48.872;9.226;2022-09-09T14:13:11;3.03;;;0.83;;
359;SDS011;168;48.872;9.226;2022-09-09T14:15:41;1.47;;;0.80;;
359;SDS011;168;48.872;9.226;2022-09-09T14:18:11;0.63;;;0.60;;
359;SDS011;168;48.872;9.226;2022-09-09T14:20:40;1.27;;;0.70;;
359;SDS011;168;48.872;9.226;2022-09-09T14:23:09;0.97;;;0.70;;
359;SDS011;168;48.872;9.226;2022-09-09T14:25:44;1.27;;;0.60;;
359;SDS011;168;48.872;9.226;2022-09-09T14:28:12;1.80;;;1.13;;
359;SDS011;168;48.872;9.226;2022-09-09T14:30:41;1.37;;;0.90;;
359;SDS011;168;48.872;9.226;2022-09-09T14:33:11;1.50;;;0.70;;
359;SDS011;168;48.872;9.226;2022-09-09T14:35:40;0.90;;;0.57;;
359;SDS011;168;48.872;9.226;2022-09-09T14:38:08;2.40;;;0.67;;
359;SDS011;168;48.872;9.226;2022-09-09T14:40:36;1.20;;;0.80;;
359;SDS011;168;48.872;9.226;2022-09-09T14:43:05;0.90;;;0.70;;
359;SDS011;168;48.872;9.226;2022-09-09T14:45:32;4.10;;;1.20;;
359;SDS011;168;48.872;9.226;2022-09-09T14:48:03;0.87;;;0.53;;
359;SDS011;168;48.872;9.226;2022-09-09T14:50:31;1.80;;;0.60;;
359;SDS011;168;48.872;9.226;2022-09-09T14:53:00;0.73;;;0.70;;
359;SDS011;168;48.872;9.226;2022-09-09T14:55:27;0.97;;;0.60;;
359;SDS011;168;48.872;9.226;2022-09-09T14:57:55;1.37;;;0.70;;
359;SDS011;168;48.872;9.226;2022-09-09T15:00:22;0.80;;;0.67;;
359;SDS011;168;48.872;9.226;2022-09-09T15:02:51;2.10;;;0.70;;
359;SDS011;168;48.872;9.226;2022-09-09T15:05:19;1.67;;;0.70;;
359;SDS011;168;48.872;9.226;2022-09-09T15:07:48;1.00;;;0.90;;
359;SDS011;168;48.872;9.226;2022-09-09T15:10:16;0.90;;;0.60;;
359;SDS011;168;48.872;9.226;2022-09-09T15:12:43;2.17;;;0.47;;
359;SDS011;168;48.872;9.226;2022-09-09T15:15:11;1.50;;;0.50;;
359;SDS011;168;48.872;9.226;2022-09-09T15:17:39;2.00;;;0.53;;
359;SDS011;168;48.872;9.226;2022-09-09T15:20:07;1.07;;;0.40;;
359;SDS011;168;48.872;9.226;2022-09-09T15:22:35;1.07;;;0.70;;
359;SDS011;168;48.872;9.226;2022-09-09T15:25:05;1.37;;;0.77;;
359;SDS011;168;48.872;9.226;2022-09-09T15:27:33;1.00;;;0.90;;
359;SDS011;168;48.872;9.226;2022-09-09T15:30:02;1.87;;;0.70;;
359;SDS011;168;48.872;9.226;2022-09-09T15:32:29;1.03;;;0.60;;
359;SDS011;168;48.872;9.226;2022-09-09T15:34:58;1.00;;;0.60;;
359;SDS011;168;48.872;9.226;2022-09-09T15:37:27;0.90;;;0.50;;
359;SDS011;168;48.872;9.226;2022-09-09T15:39:54;1.33;;;0.60;;
359;SDS011;168;48.872;9.226;2022-09-09T15:42:25;1.27;;;0.50;;
359;SDS011;168;48.872;9.226;2022-09-09T15:44:53;0.83;;;0.57;;
359;SDS011;168;48.872;9.226;2022-09-09T15:47:20;1.53;;;0.50;;
359;SDS011;168;48.872;9.226;2022-09-09T15:49:48;3.07;;;1.60;;
359;SDS011;168;48.872;9.226;2022-09-09T15:52:16;2.30;;;0.90;;
359;SDS011;168;48.872;9.226;2022-09-09T15:54:43;1.10;;;0.60;;
359;SDS011;168;48.872;9.226;2022-09-09T15:57:11;1.40;;;0.60;;
359;SDS011;168;48.872;9.226;2022-09-09T15:59:42;1.17;;;0.60;;
359;SDS011;168;48.872;9.226;2022-09-09T16:02:10;0.67;;;0.63;;
359;SDS011;168;48.872;9.226;2022-09-09T16:04:38;1.80;;;0.60;;
359;SDS011;168;48.872;9.226;2022-09-09T16:07:05;1.27;;;0.83;;
359;SDS011;168;48.872;9.226;2022-09-09T16:09:33;1.17;;;0.60;;
359;SDS011;168;48.872;9.226;2022-09-09T16:12:04;1.20;;;0.77;;
359;SDS011;168;48.872;9.226;2022-09-09T16:14:35;1.53;;;0.60;;
359;SDS011;168;48.872;9.226;2022-09-09T16:17:05;1.13;;;0.60;;
359;SDS011;168;48.872;9.226;2022-09-09T16:19:33;1.60;;;0.83;;
359;SDS011;168;48.872;9.226;2022-09-09T16:22:01;1.50;;;0.70;;
359;SDS011;168;48.872;9.226;2022-09-09T16:24:30;2.90;;;1.20;;